Coles Point, Australia
Current Conditions -  °F | °C
As of 2:00 PM on Tuesday 21 Oct 2014 (Local Time) from YWHA Reporting Station
Clear Clear  
Wind Chill: 99°   Ceiling: Unl
Heat Index: 99°   Visibility: 6mi
Dew Point: 28°   Wind: 14mph
Humidity: 8%   Direction: 330°NNW
Pressure: 29.97"   Gusts: NA
Location:  34.38°S, 135.37°E
Report Text: YWHA 210400Z AUTO 33012KT 9999 // NCD 37/M02 Q1015
Loading
Personal Weather Stations






























Interactive Weather Map
Tropical Storm Tracking
New forecast layout! Learn more

10-Day Weather Forecast

Advertisements
Track Severe Weather on mobile